Taylors Island, Maryland
Current Conditions -  °F | °C
As of 9:52 PM on Monday 20 Oct 2014 (Local Time) from KNHK Reporting Station
Overcast Overcast  
Wind Chill: 58°   Ceiling: 20000
Heat Index: 58°   Visibility: 10mi
Dew Point: 44°   Wind: 5mph
Humidity: 60%   Direction: 180°S
Pressure: 29.98"   Gusts: NA
Location:  38.47°N, 76.3°W
Report Text: KNHK 210152Z 18004KT 10SM SCT120 OVC200 14/07 A2998 RMK AO2 SLP151 T01440067
Loading
Personal Weather Stations






























Interactive Weather Map New forecast layout! Learn more

10-Day Weather Forecast

Advertisements
Track Severe Weather on mobile